Latest Weather Observations for Marble Bar

IDW60801

Issued at 12:54 pm WST Tuesday 29 September 2020 (issued every 10 minutes, with the page automatically refreshed every 10 minutes)

About weather observations | Map of weather stations | Latest weather observations for WA | Other Formats
Station Details ID: 004106 Name: MARBLE BAR Lat: -21.18 Lon: 119.75 Height: 182.3 m
Data from the previous 72 hours. | See also: Recent months at Marble Bar
Date/Time
WST
Temp
°C
App
Temp
°C
Dew
Point
°C
Rel
Hum
%
Delta-T
°C
Wind Press
QNH
hPa
Press
MSL
hPa
Rain since
9am
mm
Dir  Spd
km/h
Gust
km/h
Spd
kts
Gust
kts
29/12:30pm 36.5 33.0 -3.0 8 18.9 ENE 6 13 3 7 1012.1 1011.1 0.0
29/12:00pm 36.1 31.2 -3.3 8 18.7 ESE 13 24 7 13 1012.7 1011.7 0.0
29/11:30am 35.7 30.2 -2.0 9 18.3 E 17 24 9 13 1013.2 1012.2 0.0
29/11:00am 34.9 29.3 -2.6 9 17.9 SE 17 30 9 16 1013.7 1012.7 0.0
29/10:30am 34.6 29.0 -2.9 9 17.8 SE 17 32 9 17 1014.1 1013.1 0.0
29/10:00am 33.5 26.6 -2.3 10 17.0 SE 24 35 13 19 1014.4 1013.4 0.0
29/09:30am 32.5 26.9 -3.0 10 16.5 SSE 17 24 9 13 1014.7 1013.8 0.0
29/09:00am 31.5 25.9 -2.5 11 15.8 SSE 17 28 9 15 1014.9 1014.0 0.0
29/08:30am 30.2 24.1 -2.3 12 15.1 SSE 20 30 11 16 1015.0 1014.1 0.0
29/08:00am 28.5 22.4 -2.6 13 14.1 SSE 20 32 11 17 1014.9 1014.0 0.0
29/07:30am 27.4 22.2 -2.4 14 13.5 S 15 24 8 13 1014.6 1013.7 0.0
29/07:00am 26.2 21.5 -1.6 16 12.6 S 13 22 7 12 1014.3 1013.3 0.0
29/06:30am 24.8 20.8 -1.9 17 11.9 S 9 15 5 8 1013.9 1012.9 0.0
29/06:00am 22.6 18.7 -1.5 20 10.7 S 9 19 5 10 1013.5 1012.5 0.0
29/05:30am 22.5 19.0 -1.6 20 10.6 SSE 7 9 4 5 1013.4 1012.4 0.0
29/05:00am 22.9 19.3 -1.9 19 10.9 SSE 7 9 4 5 1012.9 1011.9 0.0
29/04:30am 23.8 19.8 -1.9 18 11.4 SSE 9 15 5 8 1012.6 1011.6 0.0
29/04:00am 24.7 20.4 -2.0 17 11.9 SSE 11 19 6 10 1012.1 1011.1 0.0
29/03:30am 25.2 20.8 -2.4 16 12.3 S 11 20 6 11 1012.1 1011.1 0.0
29/03:00am 23.4 19.8 0.5 22 10.6 SSE 9 15 5 8 1012.1 1011.1 0.0
29/02:30am 20.1 18.6 6.8 42 6.8 SSE 4 6 2 3 1012.3 1011.3 0.0
29/02:00am 20.0 18.5 8.4 47 6.1 SSE 6 6 3 3 1012.2 1011.2 0.0
29/01:30am 20.6 20.4 9.2 48 6.1 CALM 0 0 0 0 1012.1 1011.1 0.0
29/01:00am 21.1 20.8 8.7 45 6.6 CALM 0 4 0 2 1012.3 1011.3 0.0
29/12:30am 21.9 21.1 9.8 46 6.6 SSE 4 6 2 3 1012.3 1011.3 0.0
29/12:00am 22.1 21.1 8.9 43 7.1 SE 4 6 2 3 1012.5 1011.5 0.0
 
Date/Time
WST
Temp
°C
App
Temp
°C
Dew
Point
°C
Rel
Hum
%
Delta-T
°C
Wind Press
QNH
hPa
Press
MSL
hPa
Rain since
9am
mm
Dir  Spd
km/h
Gust
km/h
Spd
kts
Gust
kts
28/11:30pm 22.8 21.9 9.2 42 7.4 SSE 4 6 2 3 1012.7 1011.7 0.0
28/11:00pm 24.2 24.5 10.8 43 7.5 CALM 0 0 0 0 1012.7 1011.7 0.0
28/10:30pm 25.1 25.0 10.9 41 8.0 ENE 2 6 1 3 1012.8 1011.8 0.0
28/10:00pm 26.5 25.7 11.0 38 8.8 N 6 7 3 4 1012.9 1011.9 0.0
28/09:30pm 27.8 26.9 10.5 34 9.8 WNW 6 7 3 4 1012.9 1011.9 0.0
28/09:00pm 28.8 26.4 10.0 31 10.7 NW 13 17 7 9 1012.4 1011.4 0.0
28/08:30pm 29.1 26.2 6.5 24 12.1 N 11 15 6 8 1012.2 1011.2 0.0
28/08:00pm 30.0 26.6 6.0 22 12.8 NNW 13 22 7 12 1011.6 1010.7 0.0
28/07:30pm 31.3 27.2 4.2 18 14.1 NNW 15 26 8 14 1011.1 1010.2 0.0
28/07:00pm 32.2 28.3 3.2 16 15.0 NNW 13 19 7 10 1010.6 1009.7 0.0
28/06:30pm 33.2 29.4 -3.9 9 17.1 NW 7 11 4 6 1009.9 1009.0 0.0
28/06:00pm 34.3 29.6 -4.6 8 17.9 WNW 11 17 6 9 1009.5 1008.5 0.0
28/05:30pm 35.6 31.0 -3.7 8 18.5 WNW 11 19 6 10 1009.4 1008.4 0.0
28/05:00pm 36.5 31.6 -3.0 8 19.0 W 13 22 7 12 1009.0 1008.0 0.0
28/04:30pm 36.9 30.8 -2.7 8 19.1 WNW 20 28 11 15 1008.9 1007.9 0.0
28/04:00pm 37.8 32.7 -2.1 8 19.6 WNW 15 26 8 14 1008.8 1007.8 0.0
28/03:30pm 37.4 31.9 -2.4 8 19.4 WNW 17 28 9 15 1008.9 1007.9 0.0
28/03:00pm 37.6 32.1 -2.2 8 19.5 WNW 17 32 9 17 1009.0 1008.0 0.0
28/02:30pm 37.5 32.2 -0.7 9 19.1 W 17 26 9 14 1009.3 1008.3 0.0
28/02:00pm 37.2 32.1 0.5 10 18.7 WNW 17 32 9 17 1009.6 1008.6 0.0
28/01:30pm 36.7 31.1 0.1 10 18.4 W 19 24 10 13 1009.8 1008.9 0.0
28/01:00pm 36.4 31.6 -0.1 10 18.3 W 15 24 8 13 1010.4 1009.5 0.0
28/12:30pm 36.6 31.2 -1.4 9 18.7 WNW 17 30 9 16 1011.0 1010.1 0.0
28/12:00pm 35.9 31.2 0.9 11 17.8 WSW 15 22 8 12 1011.4 1010.5 0.0
28/11:30am 34.5 32.6 7.5 19 15.1 NW 7 15 4 8 1012.1 1011.1 0.0
28/11:00am 31.9 30.3 8.8 24 13.0 WSW 7 13 4 7 1012.6 1011.6 0.0
28/10:30am 31.1 29.7 8.8 25 12.5 NW 6 11 3 6 1013.0 1012.0 0.0
28/10:00am 29.7 28.8 10.8 31 10.9 N 6 9 3 5 1013.2 1012.2 0.0
28/09:30am 28.2 28.6 12.5 37 9.2 N 2 7 1 4 1013.5 1012.5 0.0
28/09:00am 26.9 27.4 14.0 45 7.7 N 4 6 2 3 1013.6 1012.6 0.0
28/08:30am 25.3 26.0 14.4 50 6.5 ENE 4 6 2 3 1013.5 1012.5 0.0
28/08:00am 24.0 24.9 15.0 57 5.4 NE 4 6 2 3 1013.4 1012.4 0.0
28/07:30am 23.0 24.1 14.6 59 5.0 NNE 2 6 1 3 1013.1 1012.1 0.0
28/07:00am 21.7 22.5 13.6 60 4.7 SE 2 4 1 2 1012.7 1011.7 0.0
28/06:30am 19.5 19.8 12.3 63 4.1 ESE 2 4 1 2 1012.6 1011.6 0.0
28/06:00am 16.9 16.0 9.1 60 4.1 SE 4 6 2 3 1012.4 1011.4 0.0
28/05:30am 16.3 15.4 7.8 57 4.3 SE 2 4 1 2 1012.2 1011.2 0.0
28/05:00am 16.5 15.6 7.7 56 4.5 SSE 2 4 1 2 1012.0 1011.0 0.0
28/04:30am 16.5 15.2 6.1 50 5.1 SSE 2 4 1 2 1011.5 1010.6 0.0
28/04:00am 16.5 15.1 5.5 48 5.3 SSE 2 4 1 2 1011.5 1010.6 0.0
28/03:30am 17.1 15.2 5.1 45 5.8 SSE 4 4 2 2 1011.2 1010.3 0.0
28/03:00am 17.5 16.5 5.8 46 5.8 CALM 0 0 0 0 1011.2 1010.3 0.0
28/02:30am 18.4 17.9 7.8 50 5.5 CALM 0 2 0 1 1011.3 1010.4 0.0
28/02:00am 17.6 16.0 6.2 47 5.7 NE 4 7 2 4 1011.2 1010.3 0.0
28/01:30am 19.2 18.0 6.3 43 6.5 S 2 4 1 2 1011.4 1010.5 0.0
28/01:00am 20.3 19.4 5.9 39 7.2 CALM 0 4 0 2 1011.7 1010.8 0.0
28/12:30am 20.4 18.9 4.8 36 7.7 NE 2 6 1 3 1012.1 1011.1 0.0
28/12:00am 21.8 20.7 5.3 34 8.3 CALM 0 0 0 0 1012.6 1011.6 0.0
 
Date/Time
WST
Temp
°C
App
Temp
°C
Dew
Point
°C
Rel
Hum
%
Delta-T
°C
Wind Press
QNH
hPa
Press
MSL
hPa
Rain since
9am
mm
Dir  Spd
km/h
Gust
km/h
Spd
kts
Gust
kts
27/11:30pm 23.5 21.2 4.9 30 9.4 N 6 11 3 6 1012.9 1011.9 0.0
27/11:00pm 24.6 22.1 3.8 26 10.3 WNW 6 9 3 5 1013.3 1012.3 0.0
27/10:30pm 25.5 22.6 4.6 26 10.6 NW 9 17 5 9 1013.2 1012.2 0.0
27/10:00pm 25.7 23.0 3.6 24 11.0 WNW 7 11 4 6 1013.3 1012.3 0.0
27/09:30pm 27.1 24.0 3.6 22 11.8 NW 9 17 5 9 1013.1 1012.1 0.0
27/09:00pm 28.0 23.9 2.2 19 12.7 NNW 13 19 7 10 1012.8 1011.8 0.0
27/08:30pm 29.3 24.6 0.9 16 13.8 NNW 15 24 8 13 1012.5 1011.5 0.0
27/08:00pm 30.0 25.9 -0.4 14 14.5 NNW 11 15 6 8 1012.1 1011.1 0.0
27/07:30pm 31.1 26.4 -1.6 12 15.4 NNW 13 19 7 10 1011.5 1010.6 0.0
27/07:00pm 32.0 27.0 -0.9 12 15.8 NNW 15 22 8 12 1011.1 1010.2 0.0
27/06:30pm 32.9 28.2 0.9 13 15.9 NNW 15 22 8 12 1010.6 1009.7 0.0
27/06:00pm 33.8 29.2 3.6 15 15.8 NNW 17 24 9 13 1010.1 1009.2 0.0
27/05:30pm 35.1 30.1 3.6 14 16.6 NNW 19 28 10 15 1009.8 1008.9 0.0
27/05:00pm 36.2 31.3 2.3 12 17.7 NNW 17 28 9 15 1009.4 1008.4 0.0
27/04:30pm 36.7 33.4 2.7 12 17.8 WNW 9 20 5 11 1009.2 1008.2 0.0
27/04:00pm 37.1 33.5 3.0 12 18.0 NNW 11 19 6 10 1009.1 1008.1 0.0
27/03:30pm 37.3 32.6 3.1 12 18.1 NNW 17 30 9 16 1009.3 1008.3 0.0
27/03:00pm 37.7 33.0 3.4 12 18.3 NW 17 30 9 16 1009.5 1008.5 0.0
27/02:30pm 37.5 33.0 4.4 13 17.9 NNW 17 30 9 16 1009.7 1008.7 0.0
27/02:00pm 37.2 32.9 3.1 12 18.1 N 15 24 8 13 1009.9 1009.0 0.0
27/01:30pm 37.9 33.8 2.4 11 18.7 NW 13 22 7 12 1010.3 1009.4 0.0
27/01:00pm 37.1 32.9 1.8 11 18.3 NW 13 22 7 12 1010.8 1009.9 0.0
27/12:30pm 36.4 32.7 2.5 12 17.7 NNW 11 17 6 9 1011.4 1010.5 0.0
27/12:00pm 35.7 31.7 3.0 13 17.2 NW 13 20 7 11 1011.8 1010.9 0.0
27/11:30am 35.7 32.1 3.0 13 17.1 NW 11 17 6 9 1012.5 1011.5 0.0
27/11:00am 34.8 31.7 1.2 12 17.0 N 7 11 4 6 1013.0 1012.0 0.0
27/10:30am 34.4 31.4 0.9 12 16.9 ESE 6 11 3 6 1013.4 1012.4 0.0
27/10:00am 33.7 30.6 1.5 13 16.3 ESE 7 13 4 7 1013.5 1012.5 0.0
27/09:30am 32.9 30.1 2.9 15 15.5 SE 7 15 4 8 1013.8 1012.8 0.0
27/09:00am 30.7 27.5 2.9 17 14.1 SSE 9 15 5 8 1014.0 1013.0 0.0
27/08:30am 30.4 26.5 3.4 18 13.8 SE 13 19 7 10 1014.0 1013.0 0.0
27/08:00am 28.9 26.1 5.1 22 12.4 S 9 19 5 10 1014.0 1013.0 0.0
27/07:30am 26.9 24.6 7.4 29 10.5 S 9 15 5 8 1013.9 1012.9 0.0
27/07:00am 24.3 24.0 11.3 44 7.4 WSW 4 6 2 3 1013.8 1012.8 0.0
27/06:30am 21.2 21.3 10.1 49 6.1 CALM 0 0 0 0 1013.5 1012.5 0.0
27/06:00am 19.3 19.2 9.5 53 5.2 CALM 0 0 0 0 1012.9 1011.9 0.0
27/05:30am 20.0 19.9 9.3 50 5.7 CALM 0 2 0 1 1012.5 1011.5 0.0
27/05:00am 20.8 20.8 9.7 49 6.0 CALM 0 0 0 0 1012.0 1011.0 0.0
27/04:30am 21.5 21.6 10.0 48 6.3 CALM 0 2 0 1 1011.6 1010.7 0.0
27/04:00am 21.9 21.5 11.0 50 6.1 ESE 4 6 2 3 1011.5 1010.6 0.0
27/03:30am 23.2 23.3 11.6 48 6.6 ESE 2 6 1 3 1011.2 1010.3 0.0
27/03:00am 24.4 23.2 11.7 45 7.3 SW 9 13 5 7 1011.0 1010.1 0.0
27/02:30am 24.6 23.7 11.2 43 7.6 SW 7 11 4 6 1011.0 1010.1 0.0
27/02:00am 24.6 23.7 10.5 41 7.9 SSW 6 7 3 4 1011.1 1010.2 0.0
27/01:30am 25.7 25.6 10.7 39 8.5 WNW 2 6 1 3 1011.2 1010.3 0.0
27/01:00am 26.1 25.9 9.0 34 9.4 CALM 0 4 0 2 1011.4 1010.5 0.0
27/12:30am 27.5 25.9 8.9 31 10.3 W 7 15 4 8 1011.5 1010.6 0.0
27/12:00am 27.9 25.9 8.7 30 10.6 NW 9 19 5 10 1011.6 1010.7 0.0
 
Date/Time
WST
Temp
°C
App
Temp
°C
Dew
Point
°C
Rel
Hum
%
Delta-T
°C
Wind Press
QNH
hPa
Press
MSL
hPa
Rain since
9am
mm
Dir  Spd
km/h
Gust
km/h
Spd
kts
Gust
kts
26/11:30pm 27.7 26.0 7.5 28 10.9 NNE 6 7 3 4 1011.7 1010.8 0.0
26/11:00pm 29.0 27.0 7.0 25 11.9 NW 7 11 4 6 1011.7 1010.8 0.0
26/10:30pm 29.3 27.3 7.2 25 12.0 NNW 7 13 4 7 1011.8 1010.9 0.0
26/10:00pm 30.4 28.1 7.6 24 12.5 NW 9 17 5 9 1012.0 1011.0 0.0
26/09:30pm 30.8 28.3 6.6 22 13.1 NW 9 17 5 9 1011.7 1010.8 0.0
26/09:00pm 31.1 28.4 5.5 20 13.6 NW 9 13 5 7 1011.5 1010.6 0.0
26/08:30pm 31.4 28.1 2.6 16 14.6 NW 9 13 5 7 1011.3 1010.4 0.0
26/08:00pm 31.8 28.6 1.0 14 15.3 WNW 7 11 4 6 1011.0 1010.1 0.0
26/07:30pm 32.3 28.7 0.4 13 15.7 WNW 9 13 5 7 1010.6 1009.7 0.0
26/07:00pm 32.9 29.0 0.9 13 16.0 WNW 11 17 6 9 1010.2 1009.3 0.0
26/06:30pm 33.2 29.7 1.1 13 16.1 WNW 9 13 5 7 1009.6 1008.6 0.0
26/06:00pm 34.1 29.8 0.7 12 16.7 WNW 13 22 7 12 1009.2 1008.2 0.0
26/05:30pm 35.0 29.6 1.4 12 17.1 NW 19 28 10 15 1008.9 1007.9 0.0
26/05:00pm 36.0 30.5 2.1 12 17.6 WNW 20 30 11 16 1008.8 1007.8 0.0
26/04:30pm 36.4 31.4 3.6 13 17.4 WNW 19 26 10 14 1008.7 1007.7 0.0
26/04:00pm 36.5 31.1 4.7 14 17.2 WNW 22 35 12 19 1008.6 1007.6 0.0
26/03:30pm 37.3 32.4 5.3 14 17.5 WNW 20 33 11 18 1008.6 1007.6 0.0
26/03:00pm 36.8 32.3 6.9 16 16.8 NW 20 35 11 19 1008.7 1007.7 0.0
26/02:30pm 37.5 33.5 6.5 15 17.3 NW 17 35 9 19 1008.9 1007.9 0.0
26/02:00pm 37.1 32.6 6.2 15 17.2 NW 19 33 10 18 1009.3 1008.3 0.0
26/01:30pm 36.9 32.2 6.0 15 17.1 NW 20 33 11 18 1009.7 1008.7 0.0
26/01:00pm 35.5 31.3 5.8 16 16.3 WNW 17 24 9 13 1010.2 1009.3 0.0

Other formats

Comma delimited format used in spreadsheet applications
http://www.bom.gov.au/fwo/IDW60801/IDW60801.95317.axf

JavaScript Object Notation format (JSON) in row-major order
http://www.bom.gov.au/fwo/IDW60801/IDW60801.95317.json

Data quality

Most of these data are generated automatically and are frequently updated. Quality checks on data are not normally performed. It is possible for incorrect values to appear. Refer to information at About Latest Weather Observations and please check the disclaimer before using these data.